Bumpus Mills, Tennessee
Current Conditions -  °F | °C
As of 9:58 PM on Friday 24 Oct 2014 (Local Time) from KHOP Reporting Station
Clear Clear  
Wind Chill: 53°   Ceiling: Unl
Heat Index: 53°   Visibility: 10mi
Dew Point: 53°   Wind: 1mph
Humidity: 100%   Direction: 220°SW
Pressure: 30.08"   Gusts: NA
Location:  36.6°N, 87.84°W
Report Text: KHOP 250258Z AUTO 22001KT 10SM CLR 12/12 A3008 RMK AO2 SLP187 T01180118 52004
Loading
Personal Weather Stations






























Interactive Weather Map
Tropical Storm Tracking
New forecast layout! Learn more

10-Day Weather Forecast

Advertisements
Track Severe Weather on mobile